Logo AVAMET
Benvolgut visitant, si us plau, ingressa Recuperar contrasenya

Xàbia Montgó/Castellans

Dades diàries. Acumulats / Últims 30 dies disponibles

Data Temperatura (°C) Humitat rel. (%) Pressió rel. (hPa) Vent (km/h) Precipitació
Mínima Mitjana Màxima Amplitud
tèrmica
Mínima Mitjana Màxima Mínima Mitjana Màxima Predom. Mitjana Ràfega
màxima
Total
(mm)
Índex-n
Mínima Mitjana Màxima Mínima Mitjana Màxima n
0 a 1
P0 max
mm 5'
Dades mensuals acumulades fins l'últim dia disponible
12/2019 10,1 11,2 13,4 13,0 13,7 15,0 18,0 7,9 55 87 97 1.003 1.012 1.022   2,9 32,2 172,2
Dades anuals acumulades fins l'últim dia disponible
2019 5,1 15,8 26,1 19,0 10,3 23,0 36,9 31,8 17 68 98 993 1.016 1.035   3,3 64,4 929,8
Últims 30 dies disponibles
05-12-2019 10,8     13,0     15,3 4,5 77 87 92 1.009 1.016 1.022 WNW 2,7 20,9 0,0
04-12-2019 10,1     11,6     14,0 3,9 79 92 97 1.003 1.006 1.009 NW 4,2 32,2 41,4 0,85 3,70
03-12-2019 10,6     12,1     13,7 3,1 79 90 96 1.009 1.014 1.016 SW 4,0 30,6 28,2 0,54 1,90
02-12-2019 10,9     12,9     14,2 3,3 74 92 97 1.011 1.013 1.016 SW 1,8 22,5 102,6 0,80 26,70
01-12-2019 13,4     15,2     18,0 4,6 55 73 88 1.010 1.012 1.014 NW 1,6 24,1 0,0
30-11-2019 13,9     17,4     21,4 7,5 55 71 88 1.014 1.017 1.020 SSO 0,6 14,5 0,0
29-11-2019 14,2     18,6     23,1 8,9 48 59 71 1.016 1.018 1.020 SW 2,4 30,6 0,0
28-11-2019 14,2     17,3     21,7 7,5 42 57 74 1.013 1.015 1.017 W 2,9 38,6 0,0
27-11-2019 15,7     18,7     22,1 6,4 34 52 80 1.009 1.011 1.013 W 5,1 37,0 0,0
26-11-2019 14,9     18,2     21,8 6,9 47 67 89 1.010 1.012 1.015 W 1,9 29,0 0,0
25-11-2019 14,4     18,4     20,6 6,2 49 56 62 1.012 1.013 1.015 W 6,9 38,6 0,0
24-11-2019 13,5     15,4     17,3 3,8 40 44 50 1.006 1.011 1.013 W 11,3 64,4 0,0
23-11-2019 13,5     15,4     17,0 3,5 42 51 85 993 999 1.007 W 9,5 54,7 0,0
22-11-2019 11,8     13,8     15,1 3,3 66 81 93 994 1.002 1.008 SSW 3,5 41,8 1,8
21-11-2019 9,9     13,7     18,4 8,5 50 69 86 1.008 1.009 1.011 SW 1,1 19,3 0,4
20-11-2019 8,7     12,6     16,8 8,1 43 61 83 1.009 1.012 1.015 NW 1,0 16,1 1,0
19-11-2019 7,3     11,8     15,5 8,2 37 55 78 1.015 1.016 1.017 NW 1,4 22,5 0,0
18-11-2019 9,7     12,4     14,9 5,2 56 68 90 1.006 1.010 1.016 W 3,5 33,8 2,2
17-11-2019 9,4     13,6     17,4 8,0 37 48 77 1.009 1.012 1.014 W 5,1 46,7 1,4
16-11-2019 10,1     12,1     14,3 4,2 41 51 59 1.006 1.011 1.014 W 6,3 37,0 0,0
15-11-2019 9,5     12,6     15,3 5,8 W 5,5 41,8 0,0
14-11-2019 11,2     14,2     16,6 5,4 W 3,4 33,8 0,0
13-11-2019 11,7     15,1     20,7 9,0 NW 2,1 37,0 4,6
12-11-2019 12,7     14,8     18,4 5,7 W 5,3 32,2 0,0
11-11-2019 11,2     14,0     16,6 5,4 SW 5,5 41,8 0,0
10-11-2019 12,2     14,3     16,4 4,2 W 10,3 45,1 0,0
09-11-2019 13,6     15,7     18,8 5,2 W 10,0 64,4 0,0
08-11-2019 11,5     14,3     16,8 5,3 W 12,6 56,3 0,0
07-11-2019 13,6     17,3     21,8 8,2 W 1,9 22,5 0,0
06-11-2019 15,3     17,2     20,7 5,4 W 3,9 45,1 0,0
Últims 13 mesos disponibles
11/2019 7,3 13,2 20,9 16,2 14,3 19,5 27,7 20,4 44 59 81 999 1.011 1.018 W 5,1 64,4 11,4
10/2019 11,7 17,6 21,4 20,8 16,6 24,7 30,5 18,8 43 70 87 1.008 1.016 1.021 SW 2,4 48,3 79,4
09/2019 13,8 20,4 23,4 23,5 22,8 27,1 32,2 18,4 58 78 94 1.009 1.017 1.023 SW 2,5 59,5 184,2
08/2019 19,8 22,8 26,0 26,2 26,6 30,5 36,4 16,6 55 74 84 1.010 1.015 1.019 WNW 3,0 40,2 47,4
07/2019 21,1 23,0 26,1 26,5 28,5 30,9 36,9 15,8 45 70 82 1.005 1.013 1.020 ESE 3,5 41,8 1,6
06/2019 14,7 18,5 23,9 22,3 21,6 26,6 35,6 20,9 46 68 84 1.008 1.015 1.021 WNW 4,3 45,1 1,0
05/2019 11,2 15,1 20,4 18,5 18,8 22,8 29,3 18,1 48 70 83 1.005 1.015 1.024 NW 3,0 51,5 11,6
04/2019 9,1 12,4 14,3 15,4 13,9 19,3 28,1 19,0 38 69 94 999 1.012 1.025 NW 4,0 49,9 377,2
03/2019 7,9 11,4 14,6 14,9 13,7 19,2 27,1 19,2 38 62 92 1.010 1.022 1.030 NW 2,7 54,7 38,0
02/2019 6,4 9,6 12,0 13,0 13,0 17,3 23,1 16,7 37 65 89 996 1.024 1.033 NW 3,4 53,1 0,2
01/2019 5,1 9,3 12,5 12,5 10,3 16,0 20,9 15,8 38 59 82 1.003 1.018 1.030 W 2,7 48,3 5,6
12/2018 8,1 11,3 14,9 14,5 12,7 18,3 22,9 14,8 42 68 87 1.008 1.024 1.030 NW 1,9 59,5 23,4
11/2018 10,6 13,3 16,5 15,8 14,4 18,6 23,6 13,0 46 69 94 1.000 1.015 1.022 W 2,8 59,5 88,6
Tots els anys disponibles
2018 3,8 15,5 27,3 18,7 7,8 22,5 36,8 33,0 42 72 94 999 1.017 1.030 W 3,6 61,2 701,8
2017 0,8 15,4 26,4 18,6 8,4 22,5 34,0 33,2 3,6 67,6 588,4
2016 5,6 15,2 26,8 18,3 12,1 21,9 37,7 32,1 4,2 70,8 353,4
2015 3,4 15,8 21,7 18,9 22,1 22,7 37,9 34,5 4,3 66,0 453,6
2014 4,8 18,1 26,5 21,1 11,6 24,8 34,6 29,8 4,9 61,2 222,6
2013
Temperatura (°C)
Humitat relativa (%)
Velocitat del vent i ràfega màxima (km/h)
Direcció del vent (°)
Pressió (hPa)
Precipitació (mm)
Nota sobre les dades: s'avisa a l'usuari de la provisionalitat i no oficialitat d'aquestes dades
Logo AVAMET blanc
Web allotjada a Sollutia
Llicència de Creative CommonsLa web d'AVAMET i els seus continguts estan subjectes a una llicència de
Reconeixement - No Comercial - Compartir igual
Últimes estacions: Aielo de Malferit - Centre (Soci), Faura (Inforatge), Benifairó de les Valls (Inforatge), Xàbia - Les Valls (Soci), Xàbia - Alt de la Granadella (Soci), Villena - Sierra de Salinas (Soci), Sueca - Centre (Inforatge) - - -